Terminal Aerodrome Forecast
Issued by NWS

Home | Current Version | Previous Version | Text Only | Print | Product List | Glossary On
Versions: 1 2 3 4 5 6 7 8 9 10 11 12 13 14 15 16 17 18 19 20 21 22 23 24 25 26 27 28 29 30 31
000
FTUS41 KAKQ 050500
TAFPHF
TAF
KPHF 050525Z 0506/0606 VRB03KT 2SM BR OVC003
     FM050800 02012G20KT 2SM -RA BR OVC003
     FM051000 02012G22KT 3SM -RA BR OVC007
     FM051900 03010G17KT 1SM -FZRAPL BR OVC005
     FM060200 01015G22KT 2SM BR OVC007=

USA.gov is the U.S. government's official web portal to all federal, state and local government web resources and services.